createdAt,value
2023-03-27T00:03:21.265Z,531.00
2023-03-27T00:07:21.173Z,520.00
2023-03-27T00:11:21.163Z,526.00
2023-03-27T00:15:21.121Z,523.00
2023-03-27T00:19:21.062Z,528.00
2023-03-27T00:23:21.271Z,523.00
2023-03-27T00:27:21.260Z,524.00
2023-03-27T00:31:21.223Z,521.00
2023-03-27T00:35:21.182Z,522.00
2023-03-27T00:39:21.142Z,521.00
2023-03-27T00:43:21.104Z,523.00
2023-03-27T00:47:21.047Z,517.00
2023-03-27T00:51:21.036Z,518.00
2023-03-27T00:55:20.987Z,520.00
2023-03-27T00:59:20.947Z,519.00
2023-03-27T01:03:21.165Z,519.00
2023-03-27T01:07:21.094Z,519.00
2023-03-27T01:11:21.043Z,520.00
2023-03-27T01:15:21.012Z,517.00
2023-03-27T01:19:20.973Z,521.00
2023-03-27T01:23:36.069Z,520.00
2023-03-27T01:27:21.890Z,524.00
2023-03-27T01:31:20.985Z,521.00
2023-03-27T01:35:20.936Z,517.00
2023-03-27T01:39:20.846Z,521.00
2023-03-27T01:43:20.827Z,518.00
2023-03-27T01:47:20.776Z,520.00
2023-03-27T01:51:20.762Z,518.00
2023-03-27T01:55:20.706Z,523.00
2023-03-27T01:59:20.663Z,519.00
2023-03-27T02:03:20.667Z,514.00
2023-03-27T02:07:20.602Z,516.00
2023-03-27T02:11:20.553Z,513.00
2023-03-27T02:15:22.411Z,520.00
2023-03-27T02:19:21.479Z,519.00
2023-03-27T02:23:20.465Z,514.00
2023-03-27T02:27:20.397Z,518.00
2023-03-27T02:31:31.838Z,517.00
2023-03-27T02:35:21.388Z,520.00
2023-03-27T02:39:20.328Z,520.00
2023-03-27T02:43:20.350Z,514.00
2023-03-27T02:51:20.219Z,518.00
2023-03-27T02:55:20.160Z,517.00
2023-03-27T02:59:20.175Z,517.00
2023-03-27T06:19:26.195Z,506.00
2023-03-27T10:15:19.053Z,988.00
2023-03-27T11:15:18.794Z,1817.00
2023-03-27T11:43:19.021Z,1821.00
2023-03-27T11:51:18.948Z,1705.00
2023-03-27T11:59:18.848Z,1612.00
2023-03-27T12:07:26.350Z,1534.00
2023-03-27T12:15:18.746Z,1485.00
2023-03-27T12:19:28.505Z,1447.00
2023-03-27T12:27:18.622Z,1367.00
2023-03-27T12:31:18.606Z,1297.00
2023-03-27T12:35:22.005Z,1241.00
2023-03-27T12:39:18.494Z,1197.00
2023-03-27T12:47:18.429Z,1143.00
2023-03-27T12:51:18.402Z,1140.00
2023-03-27T12:55:18.377Z,1118.00
2023-03-27T12:59:18.307Z,1122.00
2023-03-27T13:03:18.395Z,1094.00
2023-03-27T13:07:18.252Z,1058.00
2023-03-27T13:11:18.232Z,1055.00
2023-03-27T13:15:18.261Z,1054.00
2023-03-27T13:19:18.173Z,1010.00
2023-03-27T13:23:18.114Z,991.00
2023-03-27T13:27:18.072Z,971.00
2023-03-27T13:31:18.076Z,943.00
2023-03-27T13:35:17.981Z,923.00
2023-03-27T13:39:18.115Z,906.00
2023-03-27T13:43:17.922Z,898.00
2023-03-27T13:47:17.876Z,886.00
2023-03-27T13:51:17.825Z,865.00
2023-03-27T13:55:17.838Z,857.00
2023-03-27T13:59:17.801Z,838.00
2023-03-27T14:03:17.973Z,822.00
2023-03-27T14:07:17.706Z,814.00
2023-03-27T14:11:17.680Z,814.00
2023-03-27T14:15:17.848Z,794.00
2023-03-27T14:19:17.588Z,769.00
2023-03-27T14:23:17.582Z,751.00
2023-03-27T14:27:17.570Z,740.00
2023-03-27T14:31:17.505Z,740.00
2023-03-27T14:35:17.475Z,744.00
2023-03-27T14:39:17.483Z,748.00
2023-03-27T14:43:17.582Z,734.00
2023-03-27T14:47:17.688Z,720.00
2023-03-27T14:51:17.891Z,717.00
2023-03-27T14:55:17.876Z,719.00
2023-03-27T14:59:17.991Z,723.00
2023-03-27T15:03:18.111Z,720.00
2023-03-27T15:07:18.198Z,714.00
2023-03-27T15:11:18.346Z,715.00
2023-03-27T15:15:18.469Z,706.00
2023-03-27T15:19:18.596Z,700.00
2023-03-27T15:23:18.736Z,701.00
2023-03-27T15:27:18.864Z,699.00
2023-03-27T15:31:19.018Z,677.00
2023-03-27T15:35:19.170Z,683.00
2023-03-27T15:39:19.230Z,680.00
2023-03-27T15:43:19.393Z,668.00
2023-03-27T15:47:19.481Z,673.00
2023-03-27T15:51:19.684Z,665.00
2023-03-27T15:55:19.733Z,664.00
2023-03-27T15:59:19.839Z,664.00
2023-03-27T16:03:20.439Z,661.00
2023-03-27T16:07:20.110Z,660.00
2023-03-27T16:11:20.237Z,655.00
2023-03-27T16:15:20.341Z,652.00
2023-03-27T16:19:20.500Z,653.00
2023-03-27T16:23:20.637Z,654.00
2023-03-27T16:27:20.773Z,652.00
2023-03-27T16:31:20.932Z,649.00
2023-03-27T16:35:21.069Z,647.00
2023-03-27T16:39:21.181Z,645.00
2023-03-27T16:43:21.340Z,645.00
2023-03-27T16:47:21.720Z,640.00
2023-03-27T16:51:21.634Z,636.00
2023-03-27T16:55:21.816Z,637.00
2023-03-27T16:59:22.022Z,633.00
2023-03-27T17:03:22.129Z,636.00
2023-03-27T17:07:22.275Z,630.00
2023-03-27T17:11:22.426Z,628.00
2023-03-27T17:15:22.644Z,635.00
2023-03-27T17:19:22.752Z,629.00
2023-03-27T17:23:22.905Z,636.00
2023-03-27T20:03:25.234Z,572.00
2023-03-27T20:39:24.939Z,562.00
2023-03-27T20:43:24.912Z,561.00
2023-03-27T20:47:24.913Z,562.00
2023-03-27T20:51:25.175Z,559.00
2023-03-27T20:55:33.701Z,552.00
2023-03-27T21:03:24.785Z,557.00
2023-03-27T21:07:24.718Z,559.00
2023-03-27T21:11:24.674Z,555.00
2023-03-27T21:15:24.660Z,551.00
2023-03-27T21:19:24.642Z,547.00
2023-03-27T21:23:24.573Z,553.00
2023-03-27T21:27:24.514Z,549.00
2023-03-27T21:31:24.629Z,552.00
2023-03-27T21:35:24.494Z,553.00
2023-03-27T21:39:24.439Z,543.00
2023-03-27T21:43:24.395Z,548.00
2023-03-27T21:47:31.690Z,545.00
2023-03-27T21:51:25.342Z,548.00
2023-03-27T21:55:24.267Z,548.00
2023-03-27T21:59:24.426Z,545.00
2023-03-27T22:03:24.664Z,546.00
2023-03-27T22:07:24.832Z,542.00
2023-03-27T22:11:25.021Z,536.00
2023-03-27T22:15:25.184Z,543.00
2023-03-27T22:19:25.323Z,539.00
2023-03-27T22:23:25.561Z,541.00
2023-03-27T22:27:25.623Z,539.00
2023-03-27T22:31:25.776Z,541.00
2023-03-27T22:35:25.865Z,540.00
2023-03-27T22:39:25.908Z,534.00
2023-03-27T22:43:26.146Z,536.00
2023-03-27T22:47:26.139Z,537.00
2023-03-27T22:51:26.230Z,530.00
2023-03-27T22:55:26.393Z,534.00
2023-03-27T22:59:26.531Z,531.00
2023-03-27T23:03:26.708Z,536.00
2023-03-27T23:07:26.683Z,530.00
2023-03-27T23:11:26.806Z,528.00
2023-03-27T23:15:30.184Z,531.00
2023-03-27T23:19:26.900Z,534.00
2023-03-27T23:23:26.897Z,532.00
2023-03-27T23:27:26.846Z,533.00
2023-03-27T23:31:26.838Z,530.00
2023-03-27T23:35:26.766Z,535.00
2023-03-27T23:39:26.715Z,531.00
2023-03-27T23:43:26.660Z,522.00
2023-03-27T23:47:26.681Z,524.00
2023-03-27T23:51:26.594Z,526.00
2023-03-27T23:55:26.550Z,524.00
2023-03-27T23:59:26.525Z,526.00
